createdAt,value
2022-12-04T00:01:20.324Z,23.83
2022-12-04T00:03:49.999Z,21.60
2022-12-04T00:06:18.926Z,22.40
2022-12-04T00:08:47.586Z,24.17
2022-12-04T00:11:17.730Z,19.37
2022-12-04T00:13:45.141Z,22.90
2022-12-04T00:16:18.273Z,24.57
2022-12-04T00:18:45.190Z,25.47
2022-12-04T00:21:13.812Z,24.70
2022-12-04T00:23:42.072Z,22.57
2022-12-04T00:26:14.514Z,24.70
2022-12-04T00:28:42.140Z,25.30
2022-12-04T00:31:12.187Z,24.07
2022-12-04T00:33:39.683Z,24.70
2022-12-04T00:36:10.003Z,24.70
2022-12-04T00:38:37.915Z,21.87
2022-12-04T00:41:05.151Z,25.47
2022-12-04T00:43:32.222Z,23.37
2022-12-04T00:45:59.479Z,23.93
2022-12-04T00:48:26.387Z,23.17
2022-12-04T00:50:54.138Z,22.07
2022-12-04T00:53:21.687Z,28.57
2022-12-04T00:55:48.224Z,22.30
2022-12-04T00:58:14.763Z,26.10
2022-12-04T01:00:42.504Z,24.47
2022-12-04T01:03:09.784Z,24.60
2022-12-04T01:05:41.090Z,24.37
2022-12-04T01:08:08.601Z,23.83
2022-12-04T01:10:38.760Z,24.43
2022-12-04T01:13:05.682Z,24.10
2022-12-04T01:15:32.418Z,23.60
2022-12-04T01:17:58.983Z,24.70
2022-12-04T01:20:25.586Z,24.50
2022-12-04T01:22:52.126Z,25.43
2022-12-04T01:25:18.758Z,23.50
2022-12-04T01:27:45.274Z,25.57
2022-12-04T01:30:12.971Z,24.03
2022-12-04T01:32:39.481Z,25.50
2022-12-04T01:35:06.580Z,24.83
2022-12-04T01:37:33.465Z,23.13
2022-12-04T01:40:00.132Z,24.00
2022-12-04T01:42:27.790Z,24.07
2022-12-04T01:45:32.154Z,25.27
2022-12-04T01:48:10.883Z,24.53
2022-12-04T01:50:37.782Z,25.07
2022-12-04T01:53:04.761Z,25.60
2022-12-04T01:55:31.727Z,26.43
2022-12-04T01:57:59.052Z,26.23
2022-12-04T02:00:25.667Z,26.13
2022-12-04T02:02:52.373Z,25.90
2022-12-04T02:05:23.112Z,25.87
2022-12-04T02:07:52.437Z,25.03
2022-12-04T02:10:24.519Z,25.97
2022-12-04T02:12:58.267Z,24.10
2022-12-04T02:15:34.924Z,25.53
2022-12-04T02:18:14.609Z,23.93
2022-12-04T02:21:16.764Z,26.87
2022-12-04T02:23:58.501Z,22.80
2022-12-04T02:26:49.085Z,25.63
2022-12-04T02:29:21.720Z,23.43
2022-12-04T02:32:00.814Z,24.40
2022-12-04T02:34:41.648Z,24.90
2022-12-04T02:37:34.473Z,22.47
2022-12-04T02:40:08.269Z,25.20
2022-12-04T02:42:41.758Z,24.30
2022-12-04T02:45:12.576Z,23.57
2022-12-04T02:47:41.627Z,25.37
2022-12-04T02:50:18.357Z,25.33
2022-12-04T02:53:14.067Z,24.73
2022-12-04T02:55:49.779Z,24.13
2022-12-04T02:58:24.564Z,19.17
2022-12-04T03:00:53.790Z,24.30
2022-12-04T03:03:26.854Z,23.50
2022-12-04T03:06:04.685Z,26.93
2022-12-04T03:08:41.368Z,22.77
2022-12-04T03:11:08.012Z,23.80
2022-12-04T03:13:56.813Z,24.30
2022-12-04T03:16:31.300Z,22.57
2022-12-04T03:19:07.815Z,23.30
2022-12-04T03:21:38.318Z,24.40
2022-12-04T03:24:13.100Z,22.30
2022-12-04T03:26:50.949Z,23.33
2022-12-04T03:29:33.519Z,23.10
2022-12-04T03:32:27.567Z,22.00
2022-12-04T03:35:01.712Z,22.43
2022-12-04T03:37:39.289Z,24.27
2022-12-04T03:40:28.688Z,26.10
2022-12-04T03:43:06.092Z,21.67
2022-12-04T03:45:47.208Z,24.40
2022-12-04T03:48:23.379Z,25.40
2022-12-04T03:50:59.693Z,22.20
2022-12-04T03:53:38.940Z,22.60
2022-12-04T03:56:11.748Z,24.13
2022-12-04T03:58:44.725Z,23.00
2022-12-04T04:01:14.059Z,23.30
2022-12-04T04:03:46.428Z,26.13
2022-12-04T04:06:18.796Z,26.07
2022-12-04T04:08:50.791Z,22.93
2022-12-04T04:11:27.691Z,22.97
2022-12-04T04:14:35.104Z,24.53
2022-12-04T04:17:28.078Z,24.80
2022-12-04T04:20:22.036Z,21.77
2022-12-04T04:23:11.889Z,23.97
2022-12-04T04:25:41.342Z,21.27
2022-12-04T04:28:31.213Z,22.10
2022-12-04T04:31:07.410Z,22.00
2022-12-04T04:33:39.421Z,22.60
2022-12-04T04:36:18.170Z,24.37
2022-12-04T04:39:00.810Z,25.10
2022-12-04T04:41:52.022Z,22.77
2022-12-04T04:44:21.192Z,23.70
2022-12-04T04:46:52.779Z,24.40
2022-12-04T04:49:24.568Z,22.23
2022-12-04T04:51:51.370Z,24.60
2022-12-04T04:54:19.621Z,24.83
2022-12-04T04:56:47.396Z,20.17
2022-12-04T04:59:14.560Z,23.20
2022-12-04T05:01:45.036Z,24.90
2022-12-04T05:04:11.773Z,21.80
2022-12-04T05:06:38.370Z,22.20
2022-12-04T05:09:04.977Z,21.97
2022-12-04T05:11:31.692Z,22.83
2022-12-04T05:13:58.681Z,21.43
2022-12-04T05:16:25.314Z,23.27
2022-12-04T05:19:11.595Z,22.63
2022-12-04T05:21:38.416Z,24.33
2022-12-04T05:24:05.433Z,21.87
2022-12-04T05:26:32.289Z,21.63
2022-12-04T05:28:58.805Z,24.60
2022-12-04T05:31:25.519Z,22.80
2022-12-04T05:33:53.216Z,22.50
2022-12-04T05:36:20.133Z,20.93
2022-12-04T05:38:47.003Z,22.30
2022-12-04T05:41:13.509Z,21.37
2022-12-04T05:43:40.110Z,23.00
2022-12-04T05:46:08.720Z,21.73
2022-12-04T05:48:35.708Z,21.50
2022-12-04T05:51:10.001Z,22.97
2022-12-04T05:53:37.968Z,21.77
2022-12-04T05:56:05.918Z,22.00
2022-12-04T05:58:36.138Z,23.13
2022-12-04T06:01:17.267Z,20.53
2022-12-04T06:03:44.477Z,23.13
2022-12-04T06:06:23.426Z,23.23
2022-12-04T06:08:52.886Z,23.30
2022-12-04T06:11:22.485Z,20.30
2022-12-04T06:13:49.811Z,22.40
2022-12-04T06:16:22.660Z,22.53
2022-12-04T06:18:57.821Z,23.63
2022-12-04T06:21:26.326Z,22.63
2022-12-04T06:23:54.237Z,23.10
2022-12-04T06:26:22.036Z,22.77
2022-12-04T06:28:49.083Z,22.17
2022-12-04T06:31:16.900Z,23.20
2022-12-04T06:33:43.779Z,23.40
2022-12-04T06:36:16.296Z,21.80
2022-12-04T06:38:42.953Z,21.77
2022-12-04T06:41:12.644Z,22.97
2022-12-04T06:43:40.233Z,23.10
2022-12-04T06:46:10.727Z,23.23
2022-12-04T06:48:37.668Z,22.07
2022-12-04T06:51:18.157Z,21.00
2022-12-04T06:53:45.285Z,22.60
2022-12-04T06:56:16.160Z,21.70
2022-12-04T06:58:42.671Z,22.87
2022-12-04T07:01:11.943Z,22.60
2022-12-04T07:03:39.252Z,22.37
2022-12-04T07:06:17.836Z,20.90
2022-12-04T07:08:46.501Z,23.30
2022-12-04T07:11:14.306Z,23.37
2022-12-04T07:13:41.607Z,22.90
2022-12-04T07:16:12.467Z,25.03
2022-12-04T07:18:39.012Z,23.67
2022-12-04T07:21:07.663Z,22.80
2022-12-04T07:23:34.666Z,21.73
2022-12-04T07:26:08.755Z,23.00
2022-12-04T07:28:36.177Z,23.20
2022-12-04T07:31:07.623Z,19.07
2022-12-04T07:33:36.008Z,22.20
2022-12-04T07:36:05.745Z,20.47
2022-12-04T07:38:34.750Z,22.53
2022-12-04T07:41:03.973Z,23.13
2022-12-04T07:43:31.797Z,22.10
2022-12-04T07:45:59.756Z,23.47
2022-12-04T07:48:31.665Z,23.53
2022-12-04T07:51:07.865Z,22.90
2022-12-04T07:53:35.300Z,21.93
2022-12-04T07:56:02.765Z,21.93
2022-12-04T07:58:29.749Z,22.53
2022-12-04T08:01:13.699Z,23.73
2022-12-04T08:03:47.195Z,21.83
2022-12-04T08:06:14.881Z,22.13
2022-12-04T08:08:41.503Z,20.90
2022-12-04T08:11:11.078Z,22.53
2022-12-04T08:13:37.596Z,22.67
2022-12-04T08:16:07.001Z,22.70
2022-12-04T08:18:33.710Z,23.73
2022-12-04T08:21:05.742Z,24.67
2022-12-04T08:23:33.142Z,23.33
2022-12-04T08:26:00.858Z,23.03
2022-12-04T08:28:28.160Z,24.07
2022-12-04T08:30:55.148Z,22.50
2022-12-04T08:33:21.815Z,22.60
2022-12-04T08:35:48.364Z,23.37
2022-12-04T08:38:14.903Z,22.93
2022-12-04T08:40:41.521Z,24.57
2022-12-04T08:43:08.289Z,22.10
2022-12-04T08:45:34.810Z,18.77
2022-12-04T08:48:02.113Z,26.40
2022-12-04T08:50:28.913Z,21.80
2022-12-04T08:52:55.469Z,24.00
2022-12-04T08:55:22.803Z,21.70
2022-12-04T08:57:52.469Z,22.30
2022-12-04T09:00:19.827Z,22.53
2022-12-04T09:02:49.797Z,22.87
2022-12-04T09:05:17.711Z,23.10
2022-12-04T09:07:44.732Z,22.23
2022-12-04T09:10:12.314Z,22.77
2022-12-04T09:12:39.117Z,22.57
2022-12-04T09:15:06.577Z,22.37
2022-12-04T09:17:34.516Z,23.60
2022-12-04T09:20:01.694Z,21.37
2022-12-04T09:22:45.480Z,22.67
2022-12-04T09:25:15.160Z,24.40
2022-12-04T09:27:41.885Z,24.80
2022-12-04T09:30:10.668Z,23.30
2022-12-04T09:32:37.714Z,22.93
2022-12-04T09:35:05.593Z,25.97
2022-12-04T09:37:33.143Z,23.70
2022-12-04T09:39:59.708Z,23.97
2022-12-04T09:42:48.591Z,24.20
2022-12-04T09:45:20.398Z,23.87
2022-12-04T09:47:50.338Z,23.77
2022-12-04T09:50:23.037Z,24.40
2022-12-04T09:53:03.329Z,29.30
2022-12-04T09:55:41.102Z,25.40
2022-12-04T09:58:14.088Z,23.57
2022-12-04T10:00:44.761Z,23.53
2022-12-04T10:03:17.420Z,25.67
2022-12-04T10:06:14.731Z,24.50
2022-12-04T10:08:49.771Z,25.50
2022-12-04T10:11:26.526Z,25.77
2022-12-04T10:14:02.072Z,24.63
2022-12-04T10:16:45.908Z,26.80
2022-12-04T10:19:18.524Z,23.37
2022-12-04T10:22:22.597Z,27.50
2022-12-04T10:24:56.633Z,36.47
2022-12-04T10:27:29.543Z,24.27
2022-12-04T10:30:00.865Z,22.63
2022-12-04T10:32:31.693Z,24.63
2022-12-04T10:35:08.856Z,25.00
2022-12-04T10:37:40.991Z,22.50
2022-12-04T10:40:22.058Z,22.40
2022-12-04T10:43:06.457Z,24.00
2022-12-04T10:45:33.014Z,22.50
2022-12-04T10:48:00.199Z,21.97
2022-12-04T10:50:26.875Z,24.77
2022-12-04T10:52:53.447Z,22.33
2022-12-04T10:55:33.169Z,23.83
2022-12-04T10:57:59.773Z,23.63
2022-12-04T11:00:34.697Z,24.30
2022-12-04T11:03:04.622Z,24.20
2022-12-04T11:05:55.422Z,22.40
2022-12-04T11:08:30.582Z,23.30
2022-12-04T11:11:00.916Z,22.77
2022-12-04T11:13:27.553Z,22.70
2022-12-04T11:15:58.133Z,18.77
2022-12-04T11:18:27.893Z,23.40
2022-12-04T11:20:56.392Z,25.00
2022-12-04T11:23:24.747Z,23.30
2022-12-04T11:25:54.596Z,23.93
2022-12-04T11:28:44.544Z,22.30
2022-12-04T11:31:20.052Z,21.73
2022-12-04T11:33:50.539Z,22.63
2022-12-04T11:36:51.955Z,20.93
2022-12-04T11:39:26.838Z,21.83
2022-12-04T11:42:17.208Z,20.17
2022-12-04T11:45:02.039Z,22.80
2022-12-04T11:47:31.473Z,23.73
2022-12-04T11:50:01.592Z,22.47
2022-12-04T11:52:35.795Z,21.40
2022-12-04T11:55:15.676Z,22.37
2022-12-04T11:58:14.452Z,22.13
2022-12-04T12:00:55.025Z,21.90
2022-12-04T12:03:38.341Z,20.60
2022-12-04T12:06:29.776Z,20.03
2022-12-04T12:09:08.269Z,21.90
2022-12-04T12:11:40.113Z,19.50
2022-12-04T12:14:24.199Z,21.60
2022-12-04T12:17:08.701Z,21.50
2022-12-04T12:20:11.013Z,22.10
2022-12-04T12:23:08.352Z,19.70
2022-12-04T12:26:13.561Z,19.40
2022-12-04T12:29:08.848Z,18.60
2022-12-04T12:31:51.100Z,20.27
2022-12-04T12:34:36.005Z,18.77
2022-12-04T12:37:15.836Z,18.90
2022-12-04T12:39:56.688Z,19.00
2022-12-04T12:42:31.268Z,20.27
2022-12-04T12:45:04.488Z,18.97
2022-12-04T12:47:38.620Z,19.03
2022-12-04T12:50:49.379Z,20.47
2022-12-04T12:53:22.929Z,19.20
2022-12-04T12:56:01.926Z,19.47
2022-12-04T12:58:38.381Z,20.60
2022-12-04T13:01:13.169Z,20.23
2022-12-04T13:04:04.918Z,20.70
2022-12-04T13:07:14.650Z,21.50
2022-12-04T13:09:48.288Z,19.30
2022-12-04T13:12:16.743Z,20.20
2022-12-04T13:14:48.653Z,20.47
2022-12-04T13:17:35.564Z,19.80
2022-12-04T13:20:10.172Z,21.33
2022-12-04T13:23:10.828Z,23.50
2022-12-04T13:25:56.636Z,20.20
2022-12-04T13:28:49.896Z,18.30
2022-12-04T13:32:02.834Z,20.90
2022-12-04T13:34:46.858Z,19.57
2022-12-04T13:37:59.792Z,19.63
2022-12-04T13:40:38.644Z,17.57
2022-12-04T13:43:23.869Z,19.93
2022-12-04T13:45:53.070Z,18.77
2022-12-04T13:48:31.800Z,19.70
2022-12-04T13:51:08.358Z,21.07
2022-12-04T13:53:38.031Z,20.20
2022-12-04T13:56:09.413Z,23.37
2022-12-04T13:58:38.283Z,20.30
2022-12-04T14:01:28.386Z,20.80
2022-12-04T14:03:57.331Z,18.70
2022-12-04T14:06:36.427Z,20.63
2022-12-04T14:09:07.600Z,19.70
2022-12-04T14:11:45.085Z,19.47
2022-12-04T14:14:26.576Z,19.10
2022-12-04T14:16:54.116Z,21.83
2022-12-04T14:19:36.679Z,21.00
2022-12-04T14:22:03.751Z,23.27
2022-12-04T14:24:40.243Z,21.97
2022-12-04T14:27:31.728Z,20.03
2022-12-04T14:29:59.832Z,24.43
2022-12-04T14:32:30.857Z,24.47
2022-12-04T14:34:57.934Z,22.70
2022-12-04T14:37:53.196Z,19.73
2022-12-04T14:40:24.686Z,21.20
2022-12-04T14:42:52.285Z,20.27
2022-12-04T14:45:25.922Z,21.60
2022-12-04T14:47:52.636Z,21.10
2022-12-04T14:50:44.307Z,21.00
2022-12-04T14:53:29.684Z,23.10
2022-12-04T14:56:23.329Z,19.20
2022-12-04T14:58:51.131Z,21.53
2022-12-04T15:01:29.720Z,20.93
2022-12-04T15:04:02.043Z,20.63
2022-12-04T15:06:31.508Z,21.13
2022-12-04T15:09:23.445Z,23.67
2022-12-04T15:12:14.049Z,21.50
2022-12-04T15:14:46.307Z,21.27
2022-12-04T15:17:15.504Z,20.13
2022-12-04T15:19:42.660Z,21.40
2022-12-04T15:22:19.465Z,23.17
2022-12-04T15:24:46.442Z,22.40
2022-12-04T15:27:15.108Z,20.07
2022-12-04T15:29:48.294Z,21.07
2022-12-04T15:32:17.562Z,21.70
2022-12-04T15:34:48.947Z,20.47
2022-12-04T15:37:22.400Z,21.87
2022-12-04T15:39:52.357Z,21.67
2022-12-04T15:42:22.202Z,20.80
2022-12-04T15:44:53.188Z,22.17
2022-12-04T15:47:25.348Z,23.60
2022-12-04T15:49:52.039Z,21.27
2022-12-04T15:52:20.121Z,22.00
2022-12-04T15:54:56.489Z,27.07
2022-12-04T15:57:31.165Z,22.83
2022-12-04T16:00:05.090Z,23.03
2022-12-04T16:02:39.597Z,18.63
2022-12-04T16:05:21.219Z,24.17
2022-12-04T16:07:59.723Z,22.77
2022-12-04T16:10:33.484Z,21.90
2022-12-04T16:13:03.263Z,20.80
2022-12-04T16:15:39.549Z,22.27
2022-12-04T16:18:07.737Z,20.57
2022-12-04T16:20:36.021Z,22.10
2022-12-04T16:23:03.658Z,20.40
2022-12-04T16:25:31.523Z,20.40
2022-12-04T16:27:59.221Z,22.30
2022-12-04T16:30:28.251Z,23.43
2022-12-04T16:32:54.901Z,22.03
2022-12-04T16:35:22.365Z,23.60
2022-12-04T16:37:48.879Z,23.37
2022-12-04T16:40:16.260Z,23.60
2022-12-04T16:42:43.509Z,17.67
2022-12-04T16:45:28.275Z,22.10
2022-12-04T16:47:57.895Z,24.20
2022-12-04T16:50:26.444Z,23.23
2022-12-04T16:52:53.493Z,24.00
2022-12-04T16:55:38.379Z,24.13
2022-12-04T16:58:06.011Z,20.97
2022-12-04T17:00:33.421Z,22.00
2022-12-04T17:03:04.025Z,22.93
2022-12-04T17:05:33.403Z,17.33
2022-12-04T17:08:00.733Z,22.57
2022-12-04T17:10:29.343Z,22.50
2022-12-04T17:12:56.034Z,23.50
2022-12-04T17:15:22.868Z,22.87
2022-12-04T17:17:49.844Z,20.60
2022-12-04T17:20:18.965Z,23.40
2022-12-04T17:22:46.293Z,21.90
2022-12-04T17:25:13.932Z,23.27
2022-12-04T17:27:40.621Z,21.53
2022-12-04T17:30:08.514Z,24.90
2022-12-04T17:32:35.236Z,22.50
2022-12-04T17:35:02.957Z,21.97
2022-12-04T17:37:31.628Z,23.70
2022-12-04T17:39:58.583Z,21.70
2022-12-04T17:42:25.200Z,22.73
2022-12-04T17:44:51.728Z,24.33
2022-12-04T17:47:18.838Z,22.13
2022-12-04T17:49:45.390Z,23.83
2022-12-04T17:52:12.108Z,24.97
2022-12-04T17:54:38.643Z,23.07
2022-12-04T17:57:06.092Z,21.93
2022-12-04T17:59:32.634Z,23.03
2022-12-04T18:01:59.185Z,23.37
2022-12-04T18:04:25.820Z,21.57
2022-12-04T18:06:52.645Z,25.37
2022-12-04T18:09:19.497Z,22.17
2022-12-04T18:11:47.666Z,23.27
2022-12-04T18:14:18.399Z,23.60
2022-12-04T18:16:51.925Z,23.73
2022-12-04T18:19:21.246Z,23.47
2022-12-04T18:21:48.151Z,23.50
2022-12-04T18:24:15.272Z,24.23
2022-12-04T18:26:45.955Z,25.57
2022-12-04T18:29:15.207Z,23.83
2022-12-04T18:31:42.655Z,23.97
2022-12-04T18:34:09.589Z,24.53
2022-12-04T18:36:38.813Z,23.37
2022-12-04T18:39:08.888Z,18.90
2022-12-04T18:41:35.482Z,25.83
2022-12-04T18:44:03.166Z,22.83
2022-12-04T18:46:30.302Z,22.70
2022-12-04T18:49:01.368Z,25.30
2022-12-04T18:51:47.003Z,22.60
2022-12-04T18:54:18.659Z,23.80
2022-12-04T18:56:46.064Z,24.77
2022-12-04T18:59:23.906Z,24.97
2022-12-04T19:01:51.705Z,24.40
2022-12-04T19:04:20.302Z,23.60
2022-12-04T19:06:52.015Z,24.97
2022-12-04T19:09:47.341Z,23.23
2022-12-04T19:12:12.870Z,22.20
2022-12-04T19:14:39.836Z,22.47
2022-12-04T19:17:06.921Z,22.80
2022-12-04T19:19:34.347Z,23.70
2022-12-04T19:22:02.126Z,24.17
2022-12-04T19:24:28.842Z,22.27
2022-12-04T19:26:55.640Z,23.10
2022-12-04T19:32:11.491Z,24.00
2022-12-04T19:34:38.199Z,21.17
2022-12-04T19:37:04.832Z,24.73
2022-12-04T19:39:31.456Z,21.40
2022-12-04T19:41:58.359Z,22.60
2022-12-04T19:44:48.000Z,22.17
2022-12-04T19:47:12.040Z,24.53
2022-12-04T19:49:38.579Z,23.70
2022-12-04T19:52:06.529Z,23.13
2022-12-04T19:54:33.049Z,21.33
2022-12-04T19:56:59.912Z,23.80
2022-12-04T19:59:29.447Z,23.40
2022-12-04T20:01:58.500Z,21.70
2022-12-04T20:04:25.392Z,21.77
2022-12-04T20:06:53.064Z,21.97
2022-12-04T20:09:21.847Z,20.40
2022-12-04T20:11:49.063Z,22.80
2022-12-04T20:14:15.841Z,19.93
2022-12-04T20:16:42.960Z,22.20
2022-12-04T20:19:14.260Z,20.83
2022-12-04T20:21:41.253Z,20.90
2022-12-04T20:24:08.193Z,17.57
2022-12-04T20:26:39.973Z,20.53
2022-12-04T20:29:10.121Z,19.90
2022-12-04T20:31:38.899Z,19.70
2022-12-04T20:34:12.972Z,19.20
2022-12-04T20:36:42.959Z,20.90
2022-12-04T20:39:11.506Z,18.13
2022-12-04T20:41:38.757Z,18.97
2022-12-04T20:44:07.612Z,19.40
2022-12-04T20:46:37.195Z,17.90
2022-12-04T20:49:06.792Z,19.60
2022-12-04T20:51:37.933Z,20.40
2022-12-04T20:54:05.582Z,18.80
2022-12-04T20:56:35.851Z,16.37
2022-12-04T20:59:05.836Z,19.90
2022-12-04T21:01:33.598Z,20.47
2022-12-04T21:04:02.010Z,19.80
2022-12-04T21:06:36.169Z,18.63
2022-12-04T21:09:06.524Z,17.97
2022-12-04T21:11:40.413Z,19.07
2022-12-04T21:14:30.095Z,17.53
2022-12-04T21:16:57.481Z,15.70
2022-12-04T21:19:24.357Z,19.63
2022-12-04T21:21:51.427Z,18.90
2022-12-04T21:24:20.730Z,19.57
2022-12-04T21:26:48.749Z,16.93
2022-12-04T21:29:16.110Z,17.20
2022-12-04T21:31:43.058Z,18.00
2022-12-04T21:34:11.848Z,18.20
2022-12-04T21:36:38.766Z,17.83
2022-12-04T21:39:05.737Z,12.30
2022-12-04T21:41:51.261Z,17.37
2022-12-04T21:44:20.448Z,16.57
2022-12-04T21:46:47.723Z,18.37
2022-12-04T21:49:15.503Z,18.27
2022-12-04T21:51:58.956Z,17.27
2022-12-04T21:54:30.167Z,18.00
2022-12-04T21:56:57.338Z,18.60
2022-12-04T21:59:25.572Z,17.33
2022-12-04T22:01:53.401Z,16.67
2022-12-04T22:04:21.087Z,18.60
2022-12-04T22:06:47.650Z,19.70
2022-12-04T22:09:14.468Z,18.17
2022-12-04T22:11:42.028Z,17.70
2022-12-04T22:14:10.386Z,19.87
2022-12-04T22:16:41.950Z,18.03
2022-12-04T22:19:09.097Z,18.03
2022-12-04T22:21:36.168Z,17.33
2022-12-04T22:24:03.629Z,17.17
2022-12-04T22:26:31.455Z,18.87
2022-12-04T22:28:58.372Z,18.53
2022-12-04T22:31:27.286Z,17.07
2022-12-04T22:33:56.049Z,19.90
2022-12-04T22:36:25.624Z,17.73
2022-12-04T22:41:39.701Z,20.67
2022-12-04T22:44:06.327Z,19.33
2022-12-04T22:46:33.863Z,19.07
2022-12-04T22:49:00.584Z,21.60
2022-12-04T22:51:27.879Z,20.17
2022-12-04T22:53:57.982Z,18.90
2022-12-04T22:56:31.367Z,19.10
2022-12-04T22:58:59.545Z,20.30
2022-12-04T23:01:31.540Z,17.60
2022-12-04T23:03:58.973Z,19.10
2022-12-04T23:06:29.874Z,19.83
2022-12-04T23:09:03.508Z,19.40
2022-12-04T23:11:30.799Z,19.37
2022-12-04T23:14:00.470Z,18.60
2022-12-04T23:16:29.979Z,18.07
2022-12-04T23:18:57.232Z,20.10
2022-12-04T23:21:24.815Z,17.10
2022-12-04T23:23:53.499Z,21.20
2022-12-04T23:26:26.230Z,19.90
2022-12-04T23:28:52.939Z,19.20
2022-12-04T23:31:20.054Z,19.57
2022-12-04T23:33:47.082Z,17.80
2022-12-04T23:36:14.441Z,9.33
2022-12-04T23:38:43.103Z,17.90
2022-12-04T23:41:27.442Z,19.70
2022-12-04T23:43:54.688Z,19.73
2022-12-04T23:46:24.912Z,17.10
2022-12-04T23:48:51.834Z,20.50
2022-12-04T23:51:20.049Z,20.43
2022-12-04T23:53:47.809Z,18.90
2022-12-04T23:56:21.519Z,19.50
2022-12-04T23:58:49.980Z,19.00
